createdAt,value
2023-03-17T00:02:21.296Z,99753.41
2023-03-17T00:04:52.454Z,99744.59
2023-03-17T00:07:22.788Z,99745.44
2023-03-17T00:09:52.622Z,99747.22
2023-03-17T00:12:24.877Z,99760.47
2023-03-17T00:14:54.473Z,99783.34
2023-03-17T00:17:24.251Z,99779.94
2023-03-17T00:19:53.852Z,99786.22
2023-03-17T00:22:23.712Z,99776.66
2023-03-17T00:24:53.300Z,99787.19
2023-03-17T00:27:26.519Z,99787.97
2023-03-17T00:29:56.554Z,99793.13
2023-03-17T00:32:26.488Z,99801.97
2023-03-17T00:34:56.532Z,99809.06
2023-03-17T00:37:26.152Z,99825.03
2023-03-17T00:39:56.346Z,99827.06
2023-03-17T00:42:31.154Z,99824.78
2023-03-17T00:45:01.428Z,99825.03
2023-03-17T00:47:32.001Z,99827.00
2023-03-17T00:50:01.622Z,99830.69
2023-03-17T00:52:31.207Z,99833.38
2023-03-17T00:55:01.047Z,99836.09
2023-03-17T00:57:33.299Z,99820.41
2023-03-17T01:00:03.309Z,99805.50
2023-03-17T01:02:33.538Z,99801.13
2023-03-17T01:05:06.758Z,99799.38
2023-03-17T01:07:37.205Z,99795.72
2023-03-17T01:10:10.603Z,99811.38
2023-03-17T01:12:43.035Z,99820.06
2023-03-17T01:15:13.441Z,99816.44
2023-03-17T01:17:43.428Z,99807.63
2023-03-17T01:20:18.779Z,99811.97
2023-03-17T01:22:48.399Z,99810.31
2023-03-17T01:25:18.266Z,99800.63
2023-03-17T01:27:50.903Z,99796.22
2023-03-17T01:30:28.750Z,99791.94
2023-03-17T01:33:00.036Z,99798.19
2023-03-17T01:35:31.614Z,99794.75
2023-03-17T01:38:01.633Z,99781.56
2023-03-17T01:40:33.430Z,99773.59
2023-03-17T01:43:18.065Z,99765.69
2023-03-17T01:46:27.835Z,99759.63
2023-03-17T01:49:15.655Z,99734.19
2023-03-17T01:51:51.741Z,99728.06
2023-03-17T01:54:25.189Z,99728.91
2023-03-17T01:56:56.288Z,99709.69
2023-03-17T01:59:31.361Z,99707.97
2023-03-17T02:02:04.313Z,99701.03
2023-03-17T02:04:34.885Z,99711.66
2023-03-17T02:07:05.368Z,99721.34
2023-03-17T02:09:35.860Z,99722.19
2023-03-17T02:12:07.370Z,99714.28
2023-03-17T02:14:39.978Z,99717.91
2023-03-17T02:17:10.394Z,99700.38
2023-03-17T02:19:40.004Z,99695.19
2023-03-17T02:22:12.496Z,99695.19
2023-03-17T02:24:43.799Z,99696.09
2023-03-17T02:27:16.411Z,99699.69
2023-03-17T02:29:46.499Z,99687.56
2023-03-17T02:32:17.780Z,99673.66
2023-03-17T02:34:48.049Z,99681.78
2023-03-17T02:37:21.943Z,99696.03
2023-03-17T02:39:51.589Z,99689.13
2023-03-17T02:42:22.572Z,99704.13
2023-03-17T02:44:52.261Z,99703.34
2023-03-17T02:47:22.327Z,99707.88
2023-03-17T02:49:52.269Z,99714.97
2023-03-17T02:52:24.548Z,99722.16
2023-03-17T02:54:54.241Z,99728.41
2023-03-17T02:57:23.838Z,99725.84
2023-03-17T02:59:53.557Z,99729.53
2023-03-17T03:02:23.142Z,99740.28
2023-03-17T03:04:53.111Z,99719.34
2023-03-17T03:07:25.554Z,99723.88
2023-03-17T03:09:55.152Z,99716.03
2023-03-17T03:12:24.878Z,99716.03
2023-03-17T03:14:54.460Z,99724.06
2023-03-17T03:17:24.194Z,99716.41
2023-03-17T03:19:53.773Z,99714.81
2023-03-17T03:22:25.954Z,99712.31
2023-03-17T03:24:56.031Z,99705.47
2023-03-17T03:27:25.738Z,99696.72
2023-03-17T03:29:55.578Z,99703.72
2023-03-17T03:32:25.152Z,99702.06
2023-03-17T03:34:54.822Z,99695.97
2023-03-17T03:37:27.010Z,99690.69
2023-03-17T03:39:56.862Z,99693.28
2023-03-17T03:42:26.459Z,99682.81
2023-03-17T03:44:56.066Z,99687.28
2023-03-17T03:47:25.729Z,99684.75
2023-03-17T03:49:55.304Z,99676.88
2023-03-17T03:52:27.526Z,99666.47
2023-03-17T03:54:57.096Z,99674.38
2023-03-17T03:57:26.686Z,99680.44
2023-03-17T03:59:56.291Z,99682.94
2023-03-17T04:02:25.980Z,99696.78
2023-03-17T04:04:56.474Z,99712.31
2023-03-17T04:07:28.679Z,99707.72
2023-03-17T04:09:59.855Z,99698.94
2023-03-17T04:12:29.429Z,99699.97
2023-03-17T04:14:58.999Z,99709.63
2023-03-17T04:17:28.565Z,99710.50
2023-03-17T04:19:58.467Z,99707.72
2023-03-17T04:22:30.760Z,99688.38
2023-03-17T04:25:00.437Z,99698.78
2023-03-17T04:27:30.019Z,99702.19
2023-03-17T04:30:00.033Z,99696.94
2023-03-17T04:32:29.683Z,99700.38
2023-03-17T04:34:59.373Z,99702.09
2023-03-17T04:37:34.463Z,99702.09
2023-03-17T04:40:05.267Z,99707.31
2023-03-17T04:42:34.826Z,99698.50
2023-03-17T04:45:04.404Z,99707.38
2023-03-17T04:47:33.981Z,99702.19
2023-03-17T04:50:03.868Z,99703.91
2023-03-17T04:52:36.476Z,99698.59
2023-03-17T04:55:06.787Z,99691.56
2023-03-17T04:57:36.691Z,99697.69
2023-03-17T05:00:07.770Z,99688.00
2023-03-17T05:02:39.118Z,99679.19
2023-03-17T05:05:09.861Z,99687.09
2023-03-17T05:07:42.021Z,99689.66
2023-03-17T05:10:13.822Z,99691.38
2023-03-17T05:12:43.454Z,99704.41
2023-03-17T05:15:14.347Z,99704.41
2023-03-17T05:17:43.954Z,99697.31
2023-03-17T05:20:14.748Z,99684.22
2023-03-17T05:22:47.180Z,99690.19
2023-03-17T05:25:17.004Z,99686.56
2023-03-17T05:27:46.588Z,99692.66
2023-03-17T05:30:17.030Z,99687.38
2023-03-17T05:32:46.951Z,99693.56
2023-03-17T05:35:17.429Z,99688.31
2023-03-17T05:37:49.633Z,99697.19
2023-03-17T05:40:19.551Z,99696.25
2023-03-17T05:42:49.091Z,99694.47
2023-03-17T05:45:18.822Z,99689.06
2023-03-17T05:47:48.744Z,99697.91
2023-03-17T05:50:18.853Z,99693.44
2023-03-17T05:52:51.652Z,99688.97
2023-03-17T05:55:21.718Z,99687.13
2023-03-17T05:57:51.384Z,99682.59
2023-03-17T06:00:23.786Z,99680.72
2023-03-17T06:02:53.626Z,99685.03
2023-03-17T06:05:23.763Z,99690.19
2023-03-17T06:07:56.665Z,99693.59
2023-03-17T06:10:27.168Z,99688.19
2023-03-17T06:12:57.125Z,99690.66
2023-03-17T06:15:26.867Z,99686.09
2023-03-17T06:17:56.491Z,99692.09
2023-03-17T06:20:26.103Z,99698.88
2023-03-17T06:23:04.499Z,99690.66
2023-03-17T06:25:35.228Z,99687.72
2023-03-17T06:28:05.585Z,99679.50
2023-03-17T06:30:38.737Z,99678.28
2023-03-17T06:33:10.179Z,99692.94
2023-03-17T06:35:40.104Z,99679.31
2023-03-17T06:38:13.478Z,99681.41
2023-03-17T06:40:43.155Z,99679.16
2023-03-17T06:43:13.518Z,99684.38
2023-03-17T06:45:43.110Z,99681.22
2023-03-17T06:48:13.063Z,99685.78
2023-03-17T06:50:42.612Z,99676.47
2023-03-17T06:53:14.739Z,99672.41
2023-03-17T06:55:45.096Z,99673.63
2023-03-17T06:58:15.965Z,99679.72
2023-03-17T07:00:45.985Z,99671.22
2023-03-17T07:03:15.712Z,99673.50
2023-03-17T07:05:45.567Z,99672.22
2023-03-17T07:08:17.994Z,99673.31
2023-03-17T07:10:47.701Z,99679.13
2023-03-17T07:13:17.234Z,99679.59
2023-03-17T07:15:48.265Z,99679.44
2023-03-17T07:18:18.900Z,99678.78
2023-03-17T07:20:48.888Z,99672.50
2023-03-17T07:23:23.796Z,99678.06
2023-03-17T07:25:53.421Z,99685.28
2023-03-17T07:28:23.089Z,99670.28
2023-03-17T07:30:52.931Z,99673.09
2023-03-17T07:33:23.448Z,99677.72
2023-03-17T07:35:54.186Z,99690.84
2023-03-17T07:38:26.577Z,99677.88
2023-03-17T07:40:56.513Z,99666.31
2023-03-17T07:43:26.056Z,99669.66
2023-03-17T07:45:55.779Z,99658.72
2023-03-17T07:48:26.230Z,99662.34
2023-03-17T07:50:55.973Z,99648.50
2023-03-17T07:53:28.252Z,99653.84
2023-03-17T07:55:57.804Z,99647.91
2023-03-17T07:58:27.818Z,99648.88
2023-03-17T08:00:57.834Z,99658.59
2023-03-17T08:03:27.509Z,99670.31
2023-03-17T08:05:58.029Z,99678.56
2023-03-17T08:08:30.983Z,99674.13
2023-03-17T08:11:04.022Z,99655.72
2023-03-17T08:13:34.034Z,99668.22
2023-03-17T08:16:03.967Z,99665.28
2023-03-17T08:18:34.109Z,99676.63
2023-03-17T08:21:03.743Z,99679.53
2023-03-17T08:23:36.558Z,99685.50
2023-03-17T08:26:09.110Z,99679.53
2023-03-17T08:28:38.879Z,99683.38
2023-03-17T08:31:13.606Z,99681.72
2023-03-17T08:33:43.354Z,99675.97
2023-03-17T08:36:14.146Z,99685.03
2023-03-17T08:38:47.596Z,99693.41
2023-03-17T08:41:19.334Z,99686.00
2023-03-17T08:43:50.467Z,99678.88
2023-03-17T08:46:21.737Z,99690.13
2023-03-17T08:48:52.600Z,99683.75
2023-03-17T08:51:24.461Z,99668.88
2023-03-17T08:53:57.641Z,99675.59
2023-03-17T08:56:27.432Z,99667.41
2023-03-17T08:58:57.175Z,99658.78
2023-03-17T09:01:27.784Z,99657.53
2023-03-17T09:03:58.047Z,99649.09
2023-03-17T09:06:28.112Z,99654.84
2023-03-17T09:09:00.457Z,99653.13
2023-03-17T09:11:32.715Z,99654.28
2023-03-17T09:14:03.693Z,99654.00
2023-03-17T09:16:34.382Z,99649.38
2023-03-17T09:19:04.507Z,99657.03
2023-03-17T09:21:34.095Z,99662.16
2023-03-17T09:24:07.317Z,99677.84
2023-03-17T09:26:37.021Z,99674.66
2023-03-17T09:29:07.273Z,99677.41
2023-03-17T09:31:38.080Z,99670.09
2023-03-17T09:34:08.292Z,99671.31
2023-03-17T09:36:37.899Z,99675.91
2023-03-17T09:39:10.111Z,99659.50
2023-03-17T09:41:57.869Z,99650.97
2023-03-17T09:44:38.024Z,99641.84
2023-03-17T09:47:19.486Z,99638.78
2023-03-17T09:49:51.737Z,99644.63
2023-03-17T09:52:25.938Z,99642.34
2023-03-17T09:54:59.062Z,99637.28
2023-03-17T09:57:32.434Z,99633.00
2023-03-17T10:00:06.566Z,99649.38
2023-03-17T10:02:38.470Z,99637.97
2023-03-17T10:05:16.713Z,99649.97
2023-03-17T10:07:49.893Z,99653.66
2023-03-17T10:10:25.163Z,99648.19
2023-03-17T10:13:02.131Z,99647.50
2023-03-17T10:15:37.456Z,99649.16
2023-03-17T10:18:12.693Z,99651.81
2023-03-17T10:20:49.193Z,99661.66
2023-03-17T10:23:22.872Z,99658.50
2023-03-17T10:25:55.902Z,99650.94
2023-03-17T10:28:31.792Z,99654.91
2023-03-17T10:31:05.849Z,99643.59
2023-03-17T10:33:35.760Z,99647.22
2023-03-17T10:36:11.211Z,99640.66
2023-03-17T10:38:43.244Z,99643.38
2023-03-17T10:41:17.052Z,99651.13
2023-03-17T10:43:50.633Z,99650.03
2023-03-17T10:46:23.340Z,99648.81
2023-03-17T10:48:55.257Z,99635.78
2023-03-17T10:51:30.973Z,99634.44
2023-03-17T10:54:04.285Z,99637.09
2023-03-17T10:56:39.633Z,99636.91
2023-03-17T10:59:10.814Z,99625.97
2023-03-17T11:01:42.260Z,99632.91
2023-03-17T11:04:28.421Z,99628.25
2023-03-17T11:06:58.769Z,99627.81
2023-03-17T11:09:29.316Z,99623.91
2023-03-17T11:12:10.764Z,99626.25
2023-03-17T11:14:40.494Z,99622.03
2023-03-17T11:17:19.353Z,99617.78
2023-03-17T11:19:55.793Z,99619.97
2023-03-17T11:22:32.347Z,99614.88
2023-03-17T11:25:09.503Z,99612.97
2023-03-17T11:27:47.089Z,99618.53
2023-03-17T11:30:22.171Z,99614.38
2023-03-17T11:32:57.693Z,99619.22
2023-03-17T11:35:36.931Z,99616.56
2023-03-17T11:38:16.766Z,99605.75
2023-03-17T11:40:58.323Z,99607.84
2023-03-17T11:43:36.370Z,99599.47
2023-03-17T11:46:09.540Z,99593.50
2023-03-17T11:48:49.989Z,99603.25
2023-03-17T11:51:27.658Z,99598.97
2023-03-17T11:54:09.542Z,99592.63
2023-03-17T11:56:44.928Z,99582.75
2023-03-17T11:59:21.973Z,99587.50
2023-03-17T12:01:58.162Z,99571.41
2023-03-17T12:04:34.485Z,99568.41
2023-03-17T12:07:11.906Z,99571.47
2023-03-17T12:09:45.687Z,99572.75
2023-03-17T12:12:17.871Z,99560.00
2023-03-17T12:14:52.389Z,99566.50
2023-03-17T12:17:27.139Z,99577.06
2023-03-17T12:20:06.749Z,99573.97
2023-03-17T12:22:41.204Z,99574.00
2023-03-17T12:25:18.047Z,99558.44
2023-03-17T12:27:53.295Z,99567.19
2023-03-17T12:30:32.898Z,99571.09
2023-03-17T12:33:09.652Z,99568.47
2023-03-17T12:35:40.648Z,99570.06
2023-03-17T12:38:12.942Z,99562.53
2023-03-17T12:40:54.866Z,99552.44
2023-03-17T12:43:43.005Z,99562.72
2023-03-17T12:46:28.987Z,99545.56
2023-03-17T12:49:16.851Z,99557.00
2023-03-17T12:51:54.173Z,99547.59
2023-03-17T12:54:27.308Z,99548.31
2023-03-17T12:57:04.356Z,99557.38
2023-03-17T12:59:34.145Z,99546.59
2023-03-17T13:02:18.780Z,99539.00
2023-03-17T13:04:57.866Z,99536.03
2023-03-17T13:07:28.534Z,99530.47
2023-03-17T13:10:39.926Z,99532.38
2023-03-17T13:13:25.481Z,99519.41
2023-03-17T13:16:00.993Z,99525.00
2023-03-17T13:18:49.469Z,99513.59
2023-03-17T13:21:26.347Z,99518.81
2023-03-17T13:24:22.324Z,99510.47
2023-03-17T13:27:02.311Z,99515.09
2023-03-17T13:29:49.354Z,99510.47
2023-03-17T13:32:40.968Z,99513.00
2023-03-17T13:35:22.164Z,99499.63
2023-03-17T13:38:10.336Z,99508.25
2023-03-17T13:40:48.263Z,99506.03
2023-03-17T13:43:32.635Z,99515.63
2023-03-17T13:46:28.488Z,99504.66
2023-03-17T13:48:58.509Z,99501.31
2023-03-17T13:51:35.369Z,99499.06
2023-03-17T13:54:24.179Z,99493.47
2023-03-17T13:56:55.073Z,99497.81
2023-03-17T13:59:25.497Z,99501.75
2023-03-17T14:01:58.763Z,99507.38
2023-03-17T14:04:30.788Z,99513.09
2023-03-17T14:07:09.301Z,99511.31
2023-03-17T14:09:41.442Z,99530.44
2023-03-17T14:12:18.236Z,99521.56
2023-03-17T14:14:52.159Z,99522.88
2023-03-17T14:17:22.466Z,99510.31
2023-03-17T14:20:06.438Z,99511.88
2023-03-17T14:22:44.811Z,99507.41
2023-03-17T14:25:17.339Z,99480.50
2023-03-17T14:27:47.062Z,99491.22
2023-03-17T14:30:19.754Z,99479.41
2023-03-17T14:32:50.444Z,99466.13
2023-03-17T14:35:19.808Z,99471.28
2023-03-17T14:37:52.045Z,99474.38
2023-03-17T14:40:23.033Z,99475.75
2023-03-17T14:42:52.388Z,99479.41
2023-03-17T14:45:23.607Z,99487.69
2023-03-17T14:47:52.914Z,99484.06
2023-03-17T14:50:23.782Z,99489.13
2023-03-17T14:52:55.905Z,99483.31
2023-03-17T14:55:25.334Z,99485.13
2023-03-17T14:57:55.012Z,99477.25
2023-03-17T15:00:34.634Z,99477.09
2023-03-17T15:03:05.313Z,99478.34
2023-03-17T15:05:41.521Z,99478.72
2023-03-17T15:08:26.416Z,99492.63
2023-03-17T15:10:58.343Z,99497.78
2023-03-17T15:13:27.723Z,99503.03
2023-03-17T15:15:59.038Z,99513.63
2023-03-17T15:18:28.347Z,99510.75
2023-03-17T15:20:59.537Z,99505.91
2023-03-17T15:23:30.580Z,99506.19
2023-03-17T15:26:02.487Z,99486.16
2023-03-17T15:28:31.976Z,99484.81
2023-03-17T15:31:02.113Z,99503.50
2023-03-17T15:33:36.997Z,99506.09
2023-03-17T15:36:07.721Z,99519.31
2023-03-17T15:38:39.057Z,99491.16
2023-03-17T15:41:11.122Z,99483.75
2023-03-17T15:43:40.528Z,99475.91
2023-03-17T15:46:10.647Z,99488.41
2023-03-17T15:48:40.060Z,99505.00
2023-03-17T15:51:09.625Z,99500.91
2023-03-17T15:53:38.974Z,99506.50
2023-03-17T15:56:12.191Z,99530.63
2023-03-17T15:58:42.132Z,99526.00
2023-03-17T16:01:11.739Z,99521.53
2023-03-17T16:03:41.438Z,99514.25
2023-03-17T16:06:14.979Z,99500.63
2023-03-17T16:08:44.375Z,99496.75
2023-03-17T16:11:19.522Z,99502.97
2023-03-17T16:13:49.495Z,99498.84
2023-03-17T16:16:21.496Z,99494.84
2023-03-17T16:18:51.646Z,99483.06
2023-03-17T16:21:22.270Z,99463.56
2023-03-17T16:23:51.804Z,99442.44
2023-03-17T16:26:23.747Z,99429.38
2023-03-17T16:28:53.968Z,99430.44
2023-03-17T16:31:29.346Z,99473.91
2023-03-17T16:33:58.927Z,99505.66
2023-03-17T16:36:28.325Z,99509.53
2023-03-17T16:38:58.072Z,99506.25
2023-03-17T16:41:30.719Z,99508.31
2023-03-17T16:44:00.736Z,99504.16
2023-03-17T16:46:32.725Z,99506.31
2023-03-17T16:49:04.054Z,99488.94
2023-03-17T16:51:33.377Z,99467.13
2023-03-17T16:54:02.698Z,99473.06
2023-03-17T16:56:34.754Z,99494.69
2023-03-17T16:59:04.137Z,99504.13
2023-03-17T17:01:33.505Z,99527.56
2023-03-17T17:04:02.865Z,99549.13
2023-03-17T17:06:32.911Z,99558.41
2023-03-17T17:09:02.273Z,99565.88
2023-03-17T17:11:34.249Z,99548.31
2023-03-17T17:14:03.762Z,99546.72
2023-03-17T17:16:33.828Z,99538.13
2023-03-17T17:19:03.252Z,99523.19
2023-03-17T17:21:33.959Z,99538.53
2023-03-17T17:24:03.702Z,99519.38
2023-03-17T17:26:35.630Z,99534.00
2023-03-17T17:29:04.986Z,99533.69
2023-03-17T17:31:34.462Z,99535.44
2023-03-17T17:34:03.845Z,99560.13
2023-03-17T17:36:33.259Z,99576.63
2023-03-17T17:39:06.558Z,99571.63
2023-03-17T17:41:38.514Z,99579.06
2023-03-17T17:44:07.930Z,99581.09
2023-03-17T17:46:37.635Z,99574.25
2023-03-17T17:49:07.222Z,99565.72
2023-03-17T17:51:36.593Z,99559.88
2023-03-17T17:54:06.115Z,99548.72
2023-03-17T17:56:40.205Z,99544.56
2023-03-17T17:59:09.523Z,99568.72
2023-03-17T18:01:38.907Z,99574.22
2023-03-17T18:04:09.618Z,99573.59
2023-03-17T18:06:38.994Z,99560.47
2023-03-17T18:09:08.380Z,99560.81
2023-03-17T18:11:42.073Z,99588.44
2023-03-17T18:14:11.592Z,99596.63
2023-03-17T18:16:41.483Z,99601.94
2023-03-17T18:19:11.818Z,99616.19
2023-03-17T18:21:41.448Z,99629.47
2023-03-17T18:24:11.136Z,99638.31
2023-03-17T18:26:43.097Z,99641.81
2023-03-17T18:29:12.601Z,99625.75
2023-03-17T18:31:42.744Z,99608.97
2023-03-17T18:34:14.677Z,99599.19
2023-03-17T18:36:44.952Z,99578.75
2023-03-17T18:39:14.285Z,99577.06
2023-03-17T18:41:46.256Z,99592.25
2023-03-17T18:44:15.723Z,99603.84
2023-03-17T18:46:45.045Z,99615.34
2023-03-17T18:49:14.373Z,99628.63
2023-03-17T18:51:43.718Z,99618.09
2023-03-17T18:54:13.712Z,99619.03
2023-03-17T18:56:43.058Z,99620.00
2023-03-17T18:59:14.980Z,99626.34
2023-03-17T19:01:44.404Z,99629.13
2023-03-17T19:04:13.896Z,99615.09
2023-03-17T19:06:43.274Z,99611.66
2023-03-17T19:09:12.982Z,99617.94
2023-03-17T19:11:42.448Z,99620.69
2023-03-17T19:14:11.878Z,99613.66
2023-03-17T19:16:45.040Z,99612.09
2023-03-17T19:19:14.400Z,99605.06
2023-03-17T19:21:43.730Z,99597.19
2023-03-17T19:24:14.268Z,99597.31
2023-03-17T19:26:43.621Z,99602.63
2023-03-17T19:29:13.104Z,99595.69
2023-03-17T19:31:48.090Z,99594.81
2023-03-17T19:34:18.015Z,99601.13
2023-03-17T19:36:48.265Z,99603.94
2023-03-17T19:39:17.680Z,99594.19
2023-03-17T19:41:48.457Z,99598.63
2023-03-17T19:44:17.787Z,99590.56
2023-03-17T19:46:49.787Z,99595.81
2023-03-17T19:49:20.357Z,99594.94
2023-03-17T19:51:49.910Z,99593.22
2023-03-17T19:54:23.425Z,99596.97
2023-03-17T19:56:55.552Z,99605.88
2023-03-17T19:59:24.884Z,99605.09
2023-03-17T20:01:56.996Z,99609.69
2023-03-17T20:04:26.410Z,99620.31
2023-03-17T20:06:56.948Z,99612.44
2023-03-17T20:09:27.194Z,99623.91
2023-03-17T20:11:56.821Z,99626.78
2023-03-17T20:14:26.302Z,99628.56
2023-03-17T20:16:58.232Z,99619.84
2023-03-17T20:19:27.592Z,99625.25
2023-03-17T20:21:58.562Z,99647.34
2023-03-17T20:24:29.188Z,99658.06
2023-03-17T20:26:59.574Z,99642.13
2023-03-17T20:29:28.936Z,99650.31
2023-03-17T20:32:03.920Z,99642.72
2023-03-17T20:34:34.704Z,99648.53
2023-03-17T20:37:04.327Z,99653.38
2023-03-17T20:39:34.218Z,99662.66
2023-03-17T20:42:09.952Z,99668.47
2023-03-17T20:44:39.460Z,99658.31
2023-03-17T20:47:11.441Z,99664.75
2023-03-17T20:49:42.627Z,99669.34
2023-03-17T20:52:14.362Z,99668.03
2023-03-17T20:54:43.695Z,99681.19
2023-03-17T20:57:14.276Z,99688.44
2023-03-17T20:59:45.218Z,99683.22
2023-03-17T21:02:19.602Z,99688.28
2023-03-17T21:04:49.499Z,99685.38
2023-03-17T21:07:19.480Z,99686.78
2023-03-17T21:09:49.008Z,99686.47
2023-03-17T21:12:19.008Z,99677.13
2023-03-17T21:14:48.498Z,99680.16
2023-03-17T21:17:20.719Z,99665.28
2023-03-17T21:19:50.069Z,99667.16
2023-03-17T21:22:19.480Z,99659.47
2023-03-17T21:24:49.024Z,99664.00
2023-03-17T21:27:18.404Z,99663.22
2023-03-17T21:29:48.216Z,99657.19
2023-03-17T21:32:20.125Z,99658.13
2023-03-17T21:34:49.458Z,99654.88
2023-03-17T21:37:18.858Z,99659.66
2023-03-17T21:39:48.528Z,99636.41
2023-03-17T21:42:17.966Z,99640.63
2023-03-17T21:44:48.359Z,99651.81
2023-03-17T21:47:20.619Z,99645.16
2023-03-17T21:49:49.962Z,99644.72
2023-03-17T21:52:20.871Z,99645.91
2023-03-17T21:54:50.473Z,99648.81
2023-03-17T21:57:19.804Z,99661.34
2023-03-17T21:59:49.148Z,99654.50
2023-03-17T22:02:21.076Z,99655.50
2023-03-17T22:04:50.410Z,99658.16
2023-03-17T22:07:19.781Z,99659.00
2023-03-17T22:09:49.243Z,99661.59
2023-03-17T22:12:19.286Z,99662.25
2023-03-17T22:14:48.610Z,99666.44
2023-03-17T22:17:17.939Z,99667.06
2023-03-17T22:19:49.888Z,99680.03
2023-03-17T22:22:20.524Z,99675.53
2023-03-17T22:24:49.903Z,99676.28
2023-03-17T22:27:19.989Z,99683.22
2023-03-17T22:29:49.420Z,99689.31
2023-03-17T22:32:18.769Z,99684.84
2023-03-17T22:34:51.278Z,99680.44
2023-03-17T22:37:20.799Z,99681.28
2023-03-17T22:39:50.191Z,99679.56
2023-03-17T22:42:19.529Z,99678.72
2023-03-17T22:44:48.897Z,99687.59
2023-03-17T22:47:18.224Z,99692.13
2023-03-17T22:49:47.618Z,99700.97
2023-03-17T22:52:19.523Z,99700.09
2023-03-17T22:54:48.880Z,99695.69
2023-03-17T22:57:18.203Z,99697.47
2023-03-17T22:59:47.684Z,99688.69
2023-03-17T23:02:18.566Z,99694.81
2023-03-17T23:04:49.171Z,99695.78
2023-03-17T23:07:21.227Z,99699.25
2023-03-17T23:09:50.574Z,99698.34
2023-03-17T23:12:23.025Z,99702.63
2023-03-17T23:14:52.436Z,99695.53
2023-03-17T23:17:21.868Z,99691.94
2023-03-17T23:19:51.226Z,99699.88
2023-03-17T23:22:23.128Z,99694.59
2023-03-17T23:24:53.301Z,99703.28
2023-03-17T23:27:22.644Z,99699.72
2023-03-17T23:29:53.156Z,99692.56
2023-03-17T23:32:22.620Z,99688.88
2023-03-17T23:34:51.984Z,99691.28
2023-03-17T23:37:23.902Z,99695.56
2023-03-17T23:39:53.356Z,99692.56
2023-03-17T23:42:22.666Z,99682.72
2023-03-17T23:44:52.074Z,99682.34
2023-03-17T23:47:22.522Z,99687.50
2023-03-17T23:49:53.232Z,99689.97
2023-03-17T23:52:25.691Z,99686.22
2023-03-17T23:54:55.026Z,99683.47
2023-03-17T23:57:24.333Z,99686.03
2023-03-17T23:59:53.694Z,99692.13
